createdAt,value
2023-02-21T00:02:04.156Z,60.14
2023-02-21T00:04:49.512Z,60.35
2023-02-21T00:07:35.558Z,60.35
2023-02-21T00:10:21.240Z,60.21
2023-02-21T00:13:06.598Z,60.51
2023-02-21T00:15:52.466Z,61.28
2023-02-21T00:18:37.814Z,62.12
2023-02-21T00:21:24.055Z,62.44
2023-02-21T00:24:09.959Z,62.72
2023-02-21T00:26:55.470Z,63.08
2023-02-21T00:29:40.779Z,63.43
2023-02-21T00:32:26.609Z,63.16
2023-02-21T00:35:12.552Z,61.67
2023-02-21T00:37:58.333Z,62.15
2023-02-21T00:40:44.188Z,62.74
2023-02-21T00:43:30.046Z,61.15
2023-02-21T00:46:15.491Z,60.72
2023-02-21T00:49:01.057Z,60.49
2023-02-21T00:51:46.976Z,64.46
2023-02-21T00:54:32.814Z,64.88
2023-02-21T00:57:18.407Z,64.53
2023-02-21T01:00:03.825Z,63.98
2023-02-21T01:02:49.144Z,63.46
2023-02-21T01:05:35.212Z,63.53
2023-02-21T01:08:22.040Z,62.70
2023-02-21T01:11:07.718Z,63.25
2023-02-21T01:13:53.357Z,62.45
2023-02-21T01:16:38.639Z,62.71
2023-02-21T01:19:25.416Z,62.53
2023-02-21T01:22:10.754Z,62.16
2023-02-21T01:24:56.172Z,61.41
2023-02-21T01:27:41.632Z,61.18
2023-02-21T01:30:28.009Z,61.00
2023-02-21T01:33:13.734Z,60.37
2023-02-21T01:36:00.743Z,59.56
2023-02-21T01:38:46.378Z,62.98
2023-02-21T01:41:32.113Z,62.58
2023-02-21T01:44:20.644Z,61.57
2023-02-21T01:47:06.189Z,60.34
2023-02-21T01:49:54.788Z,59.77
2023-02-21T01:52:40.492Z,60.21
2023-02-21T01:55:27.788Z,63.07
2023-02-21T01:58:15.235Z,62.88
2023-02-21T02:01:01.525Z,59.53
2023-02-21T02:03:50.088Z,60.64
2023-02-21T02:06:36.535Z,62.79
2023-02-21T02:09:39.835Z,62.41
2023-02-21T02:12:57.122Z,60.25
2023-02-21T02:15:39.048Z,59.67
2023-02-21T02:18:28.184Z,61.72
2023-02-21T02:20:58.124Z,63.20
2023-02-21T02:23:34.176Z,61.14
2023-02-21T02:26:25.416Z,59.17
2023-02-21T02:29:29.366Z,60.93
2023-02-21T02:32:13.818Z,64.05
2023-02-21T02:35:13.909Z,61.90
2023-02-21T02:38:02.418Z,59.70
2023-02-21T02:40:37.718Z,59.82
2023-02-21T02:43:20.728Z,62.22
2023-02-21T02:45:59.285Z,62.58
2023-02-21T02:48:44.528Z,60.63
2023-02-21T02:51:14.975Z,59.23
2023-02-21T02:53:42.773Z,61.97
2023-02-21T02:56:13.625Z,64.52
2023-02-21T02:58:42.740Z,63.09
2023-02-21T03:01:47.358Z,61.59
2023-02-21T03:04:41.321Z,61.56
2023-02-21T03:07:40.909Z,61.44
2023-02-21T03:10:45.117Z,61.47
2023-02-21T03:13:20.733Z,61.50
2023-02-21T03:19:18.176Z,61.84
2023-02-21T03:22:08.223Z,61.91
2023-02-21T03:24:35.989Z,61.52
2023-02-21T03:27:07.378Z,61.83
2023-02-21T03:30:01.482Z,61.80
2023-02-21T03:32:33.937Z,62.02
2023-02-21T03:35:02.113Z,62.13
2023-02-21T03:37:38.835Z,62.61
2023-02-21T03:40:20.585Z,62.25
2023-02-21T03:42:51.653Z,62.02
2023-02-21T03:45:19.201Z,61.35
2023-02-21T03:47:55.701Z,60.22
2023-02-21T03:50:22.756Z,62.06
2023-02-21T03:52:50.194Z,63.75
2023-02-21T03:55:17.763Z,62.49
2023-02-21T03:57:45.413Z,61.18
2023-02-21T04:00:14.297Z,60.42
2023-02-21T04:02:44.820Z,60.00
2023-02-21T04:05:21.201Z,59.55
2023-02-21T04:07:48.523Z,62.01
2023-02-21T04:10:16.706Z,65.02
2023-02-21T04:12:45.657Z,64.22
2023-02-21T04:15:12.984Z,63.43
2023-02-21T04:17:39.887Z,62.12
2023-02-21T04:20:08.615Z,61.50
2023-02-21T04:22:40.693Z,60.38
2023-02-21T04:25:09.204Z,58.91
2023-02-21T04:27:45.618Z,60.24
2023-02-21T04:30:12.831Z,61.85
2023-02-21T04:32:39.767Z,63.43
2023-02-21T04:35:10.888Z,61.38
2023-02-21T04:37:38.223Z,59.54
2023-02-21T04:40:05.562Z,58.61
2023-02-21T04:42:34.553Z,59.87
2023-02-21T04:45:03.328Z,61.32
2023-02-21T04:47:30.324Z,61.87
2023-02-21T04:49:58.803Z,62.69
2023-02-21T04:52:25.722Z,61.85
2023-02-21T04:54:52.621Z,58.17
2023-02-21T04:57:19.462Z,57.57
2023-02-21T04:59:46.605Z,58.96
2023-02-21T05:02:13.657Z,59.90
2023-02-21T05:04:40.678Z,61.17
2023-02-21T05:07:07.512Z,62.12
2023-02-21T05:09:34.320Z,61.22
2023-02-21T05:12:01.164Z,57.81
2023-02-21T05:14:28.017Z,58.38
2023-02-21T05:16:54.907Z,59.27
2023-02-21T05:19:27.778Z,60.70
2023-02-21T05:22:00.660Z,61.09
2023-02-21T05:24:29.862Z,61.62
2023-02-21T05:26:58.306Z,61.85
2023-02-21T05:29:26.011Z,61.91
2023-02-21T05:31:53.093Z,61.45
2023-02-21T05:34:19.997Z,58.09
2023-02-21T05:36:47.432Z,57.74
2023-02-21T05:39:14.282Z,58.82
2023-02-21T05:41:47.649Z,59.81
2023-02-21T05:44:14.732Z,60.15
2023-02-21T05:46:41.616Z,60.56
2023-02-21T05:49:09.206Z,60.77
2023-02-21T05:51:42.871Z,60.58
2023-02-21T05:54:17.272Z,61.15
2023-02-21T05:56:46.079Z,61.19
2023-02-21T05:59:14.741Z,60.95
2023-02-21T06:01:42.187Z,61.08
2023-02-21T06:04:09.037Z,61.44
2023-02-21T06:06:36.525Z,61.58
2023-02-21T06:09:05.091Z,61.66
2023-02-21T06:11:34.833Z,61.91
2023-02-21T06:14:05.735Z,61.57
2023-02-21T06:16:35.038Z,62.06
2023-02-21T06:19:02.982Z,62.49
2023-02-21T06:21:29.951Z,60.52
2023-02-21T06:23:56.868Z,57.32
2023-02-21T06:26:23.877Z,57.68
2023-02-21T06:28:51.403Z,58.92
2023-02-21T06:31:19.992Z,59.97
2023-02-21T06:33:48.497Z,60.88
2023-02-21T06:36:19.251Z,61.64
2023-02-21T06:38:48.836Z,61.84
2023-02-21T06:41:18.302Z,62.00
2023-02-21T06:43:45.144Z,61.97
2023-02-21T06:46:20.199Z,59.71
2023-02-21T06:48:47.289Z,57.41
2023-02-21T06:51:14.948Z,58.34
2023-02-21T06:53:43.501Z,59.63
2023-02-21T06:56:11.012Z,60.28
2023-02-21T06:58:38.014Z,61.06
2023-02-21T07:01:05.242Z,61.28
2023-02-21T07:03:32.185Z,61.23
2023-02-21T07:05:59.128Z,61.69
2023-02-21T07:08:26.707Z,61.50
2023-02-21T07:10:53.785Z,61.85
2023-02-21T07:13:22.497Z,62.32
2023-02-21T07:15:49.680Z,61.51
2023-02-21T07:18:16.767Z,57.40
2023-02-21T07:20:43.935Z,57.43
2023-02-21T07:23:11.027Z,58.58
2023-02-21T07:25:38.001Z,60.09
2023-02-21T07:28:05.196Z,60.41
2023-02-21T07:30:32.230Z,60.92
2023-02-21T07:32:59.566Z,61.25
2023-02-21T07:35:26.916Z,61.91
2023-02-21T07:37:54.233Z,61.92
2023-02-21T07:40:21.129Z,61.75
2023-02-21T07:42:48.246Z,58.79
2023-02-21T07:45:17.148Z,58.18
2023-02-21T07:47:47.983Z,59.35
2023-02-21T07:50:16.144Z,60.52
2023-02-21T07:52:43.533Z,62.98
2023-02-21T07:55:12.568Z,63.34
2023-02-21T07:57:39.578Z,59.91
2023-02-21T08:00:07.296Z,58.07
2023-02-21T08:02:40.420Z,60.24
2023-02-21T08:05:09.001Z,62.19
2023-02-21T08:07:35.942Z,62.46
2023-02-21T08:10:04.895Z,61.13
2023-02-21T08:12:31.779Z,58.65
2023-02-21T08:14:58.699Z,58.87
2023-02-21T08:17:26.597Z,60.63
2023-02-21T08:19:53.512Z,62.59
2023-02-21T08:22:20.503Z,63.17
2023-02-21T08:24:50.691Z,61.60
2023-02-21T08:27:18.390Z,59.69
2023-02-21T08:29:45.786Z,60.84
2023-02-21T08:32:12.685Z,62.52
2023-02-21T08:34:39.596Z,63.34
2023-02-21T08:37:17.560Z,61.16
2023-02-21T08:39:49.148Z,59.09
2023-02-21T08:42:16.119Z,61.94
2023-02-21T08:44:45.014Z,64.24
2023-02-21T08:47:13.273Z,63.88
2023-02-21T08:49:41.443Z,62.43
2023-02-21T08:52:09.450Z,61.10
2023-02-21T08:54:37.453Z,60.02
2023-02-21T08:57:04.635Z,59.99
2023-02-21T08:59:33.892Z,59.85
2023-02-21T09:02:02.164Z,59.46
2023-02-21T09:04:31.535Z,60.48
2023-02-21T09:06:58.425Z,63.43
2023-02-21T09:09:25.383Z,63.67
2023-02-21T09:11:52.230Z,62.56
2023-02-21T09:14:19.266Z,60.98
2023-02-21T09:16:47.871Z,60.76
2023-02-21T09:19:15.168Z,59.57
2023-02-21T09:21:47.693Z,58.79
2023-02-21T09:24:14.746Z,60.85
2023-02-21T09:26:42.789Z,63.05
2023-02-21T09:29:12.431Z,63.30
2023-02-21T09:31:39.699Z,61.66
2023-02-21T09:34:06.865Z,60.34
2023-02-21T09:36:36.509Z,58.73
2023-02-21T09:39:06.830Z,60.60
2023-02-21T09:41:35.963Z,63.00
2023-02-21T09:44:05.223Z,63.05
2023-02-21T09:46:44.622Z,62.40
2023-02-21T09:49:21.992Z,60.78
2023-02-21T09:51:50.483Z,60.02
2023-02-21T09:54:35.438Z,59.39
2023-02-21T09:57:05.509Z,60.81
2023-02-21T09:59:33.585Z,63.09
2023-02-21T10:02:06.453Z,61.50
2023-02-21T10:05:14.335Z,58.90
2023-02-21T10:08:00.223Z,60.46
2023-02-21T10:10:30.066Z,61.72
2023-02-21T10:13:15.748Z,63.59
2023-02-21T10:15:48.633Z,62.08
2023-02-21T10:18:34.055Z,60.35
2023-02-21T10:21:05.836Z,57.88
2023-02-21T10:23:37.025Z,59.38
2023-02-21T10:26:09.639Z,61.04
2023-02-21T10:28:38.387Z,62.80
2023-02-21T10:31:21.388Z,63.07
2023-02-21T10:33:48.872Z,60.47
2023-02-21T10:36:23.686Z,57.77
2023-02-21T10:39:09.109Z,58.71
2023-02-21T10:41:40.084Z,61.42
2023-02-21T10:44:30.795Z,62.88
2023-02-21T10:47:22.670Z,62.70
2023-02-21T10:50:02.052Z,60.14
2023-02-21T10:52:28.932Z,58.46
2023-02-21T10:55:33.126Z,60.05
2023-02-21T10:58:10.148Z,61.08
2023-02-21T11:00:39.355Z,61.21
2023-02-21T11:03:31.099Z,61.64
2023-02-21T11:05:58.454Z,61.26
2023-02-21T11:08:51.849Z,57.05
2023-02-21T11:11:37.443Z,57.06
2023-02-21T11:14:26.322Z,57.70
2023-02-21T11:17:14.383Z,59.04
2023-02-21T11:19:58.017Z,60.11
2023-02-21T11:22:26.513Z,62.27
2023-02-21T11:25:08.660Z,62.74
2023-02-21T11:27:37.148Z,59.72
2023-02-21T11:30:16.196Z,55.64
2023-02-21T11:32:49.043Z,56.50
2023-02-21T11:35:27.444Z,57.35
2023-02-21T11:38:02.413Z,57.23
2023-02-21T11:40:49.372Z,60.17
2023-02-21T11:43:24.164Z,63.31
2023-02-21T11:46:05.354Z,63.28
2023-02-21T11:48:42.939Z,61.78
2023-02-21T11:51:27.434Z,58.25
2023-02-21T11:53:54.810Z,58.63
2023-02-21T11:56:24.627Z,59.79
2023-02-21T11:59:27.130Z,61.69
2023-02-21T12:02:31.958Z,63.37
2023-02-21T12:05:08.222Z,60.65
2023-02-21T12:08:17.174Z,54.74
2023-02-21T12:11:11.821Z,51.49
2023-02-21T12:14:11.055Z,48.39
2023-02-21T12:17:09.204Z,46.69
2023-02-21T12:19:53.220Z,46.25
2023-02-21T12:22:46.441Z,44.45
2023-02-21T12:25:44.809Z,46.31
2023-02-21T12:28:39.347Z,50.15
2023-02-21T12:31:15.910Z,52.58
2023-02-21T12:34:10.424Z,51.48
2023-02-21T12:36:49.464Z,49.81
2023-02-21T12:39:16.394Z,47.89
2023-02-21T12:42:05.153Z,46.49
2023-02-21T12:44:44.221Z,46.67
2023-02-21T12:47:29.852Z,47.46
2023-02-21T12:50:12.802Z,49.40
2023-02-21T12:52:58.543Z,52.39
2023-02-21T12:55:29.999Z,54.40
2023-02-21T12:58:04.692Z,56.69
2023-02-21T13:00:44.393Z,59.12
2023-02-21T13:03:41.072Z,60.45
2023-02-21T13:06:31.713Z,60.37
2023-02-21T13:09:39.464Z,60.75
2023-02-21T13:12:25.700Z,61.98
2023-02-21T13:14:57.423Z,61.86
2023-02-21T13:17:25.807Z,63.14
2023-02-21T13:20:07.756Z,60.98
2023-02-21T13:23:31.430Z,58.23
2023-02-21T13:26:30.411Z,60.98
2023-02-21T13:28:59.002Z,63.11
2023-02-21T13:31:39.774Z,59.49
2023-02-21T13:34:09.210Z,57.89
2023-02-21T13:36:39.229Z,60.00
2023-02-21T13:39:09.078Z,61.10
2023-02-21T13:41:39.791Z,61.80
2023-02-21T13:44:47.413Z,62.31
2023-02-21T13:47:17.628Z,59.65
2023-02-21T13:49:51.460Z,57.28
2023-02-21T13:52:24.337Z,59.02
2023-02-21T13:55:14.187Z,60.55
2023-02-21T13:57:50.537Z,60.84
2023-02-21T14:00:29.821Z,61.81
2023-02-21T14:03:05.766Z,61.86
2023-02-21T14:05:48.147Z,63.09
2023-02-21T14:08:19.702Z,61.46
2023-02-21T14:11:14.244Z,59.67
2023-02-21T14:14:03.197Z,58.67
2023-02-21T14:16:48.924Z,61.24
2023-02-21T14:19:42.275Z,62.38
2023-02-21T14:22:16.442Z,59.82
2023-02-21T14:24:53.665Z,58.13
2023-02-21T14:27:20.550Z,59.80
2023-02-21T14:30:03.055Z,61.88
2023-02-21T14:32:38.153Z,63.13
2023-02-21T14:35:20.280Z,59.74
2023-02-21T14:38:21.162Z,58.10
2023-02-21T14:41:01.667Z,60.53
2023-02-21T14:43:38.020Z,62.65
2023-02-21T14:46:34.070Z,61.29
2023-02-21T14:49:41.808Z,59.76
2023-02-21T14:52:17.621Z,58.54
2023-02-21T14:55:24.176Z,60.99
2023-02-21T14:58:09.452Z,63.24
2023-02-21T15:00:39.481Z,62.04
2023-02-21T15:03:25.513Z,59.82
2023-02-21T15:06:03.430Z,59.27
2023-02-21T15:08:41.331Z,62.26
2023-02-21T15:11:16.834Z,63.69
2023-02-21T15:13:44.242Z,62.51
2023-02-21T15:16:14.437Z,60.99
2023-02-21T15:18:57.869Z,59.78
2023-02-21T15:21:24.790Z,59.61
2023-02-21T15:24:08.883Z,59.27
2023-02-21T15:26:35.878Z,61.94
2023-02-21T15:29:17.532Z,64.77
2023-02-21T15:31:56.009Z,64.32
2023-02-21T15:34:28.288Z,63.16
2023-02-21T15:37:24.283Z,62.22
2023-02-21T15:39:55.662Z,61.00
2023-02-21T15:42:23.892Z,61.18
2023-02-21T15:44:56.450Z,60.50
2023-02-21T15:47:26.106Z,61.10
2023-02-21T15:50:13.804Z,60.69
2023-02-21T15:52:48.894Z,60.70
2023-02-21T15:55:18.778Z,60.76
2023-02-21T15:57:57.769Z,60.84
2023-02-21T16:00:34.236Z,60.68
2023-02-21T16:03:27.488Z,60.65
2023-02-21T16:06:17.208Z,60.25
2023-02-21T16:09:22.116Z,60.15
2023-02-21T16:12:00.982Z,60.24
2023-02-21T16:14:55.393Z,60.10
2023-02-21T16:17:32.480Z,60.18
2023-02-21T16:20:06.612Z,60.01
2023-02-21T16:23:06.258Z,60.24
2023-02-21T16:25:25.849Z,60.64
2023-02-21T16:27:56.272Z,60.71
2023-02-21T16:30:31.660Z,60.80
2023-02-21T16:33:04.556Z,60.67
2023-02-21T16:35:33.123Z,60.54
2023-02-21T16:38:01.166Z,60.39
2023-02-21T16:40:34.466Z,60.07
2023-02-21T16:43:03.286Z,59.61
2023-02-21T16:45:31.221Z,58.91
2023-02-21T16:48:01.490Z,60.81
2023-02-21T16:50:36.326Z,64.05
2023-02-21T16:53:04.029Z,63.72
2023-02-21T16:55:31.303Z,62.25
2023-02-21T16:58:04.413Z,61.33
2023-02-21T17:00:33.641Z,60.53
2023-02-21T17:03:00.925Z,59.88
2023-02-21T17:05:28.043Z,59.18
2023-02-21T17:07:56.548Z,61.36
2023-02-21T17:10:23.660Z,63.91
2023-02-21T17:12:50.507Z,63.53
2023-02-21T17:15:17.745Z,61.70
2023-02-21T17:17:52.649Z,60.68
2023-02-21T17:20:22.024Z,59.23
2023-02-21T17:22:49.229Z,59.80
2023-02-21T17:25:16.722Z,62.21
2023-02-21T17:27:44.749Z,64.29
2023-02-21T17:30:12.483Z,63.12
2023-02-21T17:32:39.742Z,61.60
2023-02-21T17:35:07.691Z,59.73
2023-02-21T17:37:35.191Z,59.62
2023-02-21T17:40:02.901Z,61.32
2023-02-21T17:42:29.769Z,63.84
2023-02-21T17:44:57.716Z,63.49
2023-02-21T17:47:24.862Z,61.61
2023-02-21T17:49:54.763Z,60.32
2023-02-21T17:52:22.116Z,58.74
2023-02-21T17:54:49.321Z,59.41
2023-02-21T17:57:16.706Z,61.73
2023-02-21T17:59:45.953Z,63.75
2023-02-21T18:02:13.732Z,62.65
2023-02-21T18:04:41.243Z,60.62
2023-02-21T18:07:11.483Z,59.38
2023-02-21T18:09:38.913Z,58.52
2023-02-21T18:12:06.450Z,60.43
2023-02-21T18:14:34.239Z,62.62
2023-02-21T18:17:01.504Z,63.74
2023-02-21T18:19:29.405Z,62.09
2023-02-21T18:21:56.625Z,60.89
2023-02-21T18:24:23.861Z,59.78
2023-02-21T18:26:51.054Z,59.05
2023-02-21T18:29:19.048Z,59.91
2023-02-21T18:31:51.418Z,62.51
2023-02-21T18:34:19.106Z,63.98
2023-02-21T18:36:51.809Z,63.02
2023-02-21T18:39:21.601Z,61.16
2023-02-21T18:41:49.694Z,60.16
2023-02-21T18:44:17.036Z,59.03
2023-02-21T18:46:54.353Z,60.11
2023-02-21T18:49:25.300Z,62.78
2023-02-21T18:51:53.628Z,64.29
2023-02-21T18:54:22.536Z,62.95
2023-02-21T18:56:52.024Z,61.51
2023-02-21T18:59:21.866Z,60.15
2023-02-21T19:01:49.989Z,59.11
2023-02-21T19:04:17.463Z,59.18
2023-02-21T19:06:45.378Z,61.83
2023-02-21T19:09:13.450Z,64.07
2023-02-21T19:11:40.602Z,63.50
2023-02-21T19:14:09.408Z,61.71
2023-02-21T19:16:39.315Z,60.37
2023-02-21T19:19:08.434Z,59.13
2023-02-21T19:21:37.614Z,60.23
2023-02-21T19:24:07.386Z,62.31
2023-02-21T19:26:36.869Z,64.09
2023-02-21T19:29:07.420Z,62.59
2023-02-21T19:31:37.398Z,60.35
2023-02-21T19:34:08.850Z,58.64
2023-02-21T19:36:40.479Z,59.78
2023-02-21T19:39:09.942Z,61.99
2023-02-21T19:41:38.447Z,64.09
2023-02-21T19:44:09.598Z,63.44
2023-02-21T19:46:39.675Z,61.82
2023-02-21T19:49:18.075Z,60.40
2023-02-21T19:51:54.246Z,59.76
2023-02-21T19:54:25.292Z,59.10
2023-02-21T19:56:55.212Z,60.34
2023-02-21T19:59:26.385Z,63.05
2023-02-21T20:01:55.883Z,63.56
2023-02-21T20:04:26.030Z,62.10
2023-02-21T20:06:58.172Z,60.54
2023-02-21T20:09:27.435Z,59.72
2023-02-21T20:11:56.438Z,58.60
2023-02-21T20:20:51.866Z,63.49
2023-02-21T20:23:19.193Z,62.10
2023-02-21T20:25:46.337Z,60.78
2023-02-21T20:28:13.603Z,60.38
2023-02-21T20:30:40.976Z,59.99
2023-02-21T20:33:08.021Z,59.04
2023-02-21T20:35:35.259Z,60.46
2023-02-21T20:38:05.849Z,63.55
2023-02-21T20:40:33.579Z,63.68
2023-02-21T20:43:00.955Z,62.88
2023-02-21T20:45:28.797Z,62.06
2023-02-21T20:47:56.376Z,60.93
2023-02-21T20:50:25.537Z,60.76
2023-02-21T20:52:52.731Z,61.13
2023-02-21T20:55:22.600Z,61.25
2023-02-21T20:57:50.105Z,61.13
2023-02-21T21:00:18.856Z,61.22
2023-02-21T21:02:45.874Z,61.07
2023-02-21T21:05:17.004Z,60.86
2023-02-21T21:07:45.648Z,60.55
2023-02-21T21:10:15.892Z,60.54
2023-02-21T21:12:43.974Z,60.65
2023-02-21T21:15:13.286Z,60.44
2023-02-21T21:17:40.343Z,60.44
2023-02-21T21:20:10.623Z,60.57
2023-02-21T21:22:37.714Z,60.35
2023-02-21T21:25:07.961Z,60.41
2023-02-21T21:27:40.957Z,59.96
2023-02-21T21:30:09.506Z,59.23
2023-02-21T21:32:36.585Z,60.21
2023-02-21T21:35:07.182Z,63.38
2023-02-21T21:37:36.108Z,64.08
2023-02-21T21:40:16.692Z,62.69
2023-02-21T21:42:47.917Z,61.68
2023-02-21T21:45:23.199Z,61.40
2023-02-21T21:47:54.425Z,61.17
2023-02-21T21:50:22.681Z,60.46
2023-02-21T21:52:54.128Z,60.20
2023-02-21T21:55:25.728Z,59.67
2023-02-21T21:57:53.792Z,59.25
2023-02-21T22:00:25.199Z,60.57
2023-02-21T22:02:58.058Z,63.80
2023-02-21T22:05:35.612Z,65.07
2023-02-21T22:08:03.981Z,64.04
2023-02-21T22:10:31.030Z,62.88
2023-02-21T22:13:00.079Z,62.31
2023-02-21T22:15:29.656Z,62.02
2023-02-21T22:18:02.051Z,61.65
2023-02-21T22:20:31.443Z,61.26
2023-02-21T22:22:59.428Z,60.96
2023-02-21T22:25:30.234Z,60.73
2023-02-21T22:27:58.343Z,60.75
2023-02-21T22:30:25.877Z,60.77
2023-02-21T22:32:52.937Z,60.45
2023-02-21T22:35:20.708Z,60.44
2023-02-21T22:37:53.172Z,60.24
2023-02-21T22:40:24.635Z,60.12
2023-02-21T22:42:53.327Z,60.06
2023-02-21T22:45:26.300Z,60.06
2023-02-21T22:47:55.943Z,60.19
2023-02-21T22:50:24.445Z,59.87
2023-02-21T22:52:57.055Z,59.86
2023-02-21T22:55:26.283Z,60.05
2023-02-21T22:57:55.721Z,60.20
2023-02-21T23:00:33.128Z,60.26
2023-02-21T23:03:14.761Z,60.33
2023-02-21T23:05:49.788Z,60.53
2023-02-21T23:08:19.511Z,60.60
2023-02-21T23:10:47.811Z,60.53
2023-02-21T23:13:23.713Z,60.60
2023-02-21T23:15:54.094Z,60.47
2023-02-21T23:18:23.370Z,60.63
2023-02-21T23:20:53.799Z,60.77
2023-02-21T23:23:26.092Z,60.59
2023-02-21T23:25:56.557Z,60.67
2023-02-21T23:28:23.568Z,60.71
2023-02-21T23:30:50.713Z,60.82
2023-02-21T23:33:23.187Z,60.69
2023-02-21T23:35:51.917Z,60.65
2023-02-21T23:38:22.548Z,60.89
2023-02-21T23:40:58.792Z,61.20
2023-02-21T23:43:30.985Z,61.28
2023-02-21T23:45:59.386Z,61.40
2023-02-21T23:48:26.713Z,61.36
2023-02-21T23:50:58.169Z,61.46
2023-02-21T23:53:29.422Z,61.52
2023-02-21T23:56:00.930Z,61.78
2023-02-21T23:58:32.417Z,61.89
